UHBB

Ignatyevo

Blagoveschensk, Russian Federation
TAF UHBB 191345Z 1915/2015 36003MPS CAVOK TEMPO 2000/2009 34006G11MPS
Issued Valid From Valid To
Jan-19 @ 13:45 UTC
(3 hours ago)
Jan-19 @ 15:00 UTC
(2 hours ago)
Jan-20 @ 15:00 UTC
(in 22 hours)
Jan-19 @ 15:00 to Jan-20 @ 15:00
TAF UHBB 191345Z 1915/2015 36003MPS CAVOK
Wind Visibility Clouds Conditions
360° at 6 knots 10,000+ meters
  • No significant clouds
Temporary Jan-20 @ 00:00 to Jan-20 @ 09:00
TEMPO 2000/2009 34006G11MPS
Wind
340° at 12 knots
 Gusting to 21 knots
TAF UHBB 191345Z 1915/2015 36003MPS CAVOK TEMPO 2000/2009 34006G11MPS
Issued Jan-19 @ 13:45 UTC
(3 hours ago)
Valid From Jan-19 @ 15:00 UTC
(2 hours ago)
Valid To Jan-20 @ 15:00 UTC
(in 22 hours)
Jan-19 @ 15:00 - Jan-20 @ 15:00
Wind Visibility
360° at 6 knots 10,000+ meters
Clouds
  • No significant clouds
Conditions
Temporary Jan-20 @ 00:00 - Jan-20 @ 09:00
Wind
340° at 12 knots
 Gusting to 21 knots